createdAt,value
2023-03-29T00:00:27.406Z,8.40
2023-03-29T00:10:52.117Z,8.30
2023-03-29T00:21:00.344Z,9.00
2023-03-29T00:31:07.205Z,9.10
2023-03-29T00:41:12.785Z,8.60
2023-03-29T00:51:20.740Z,8.50
2023-03-29T01:01:55.229Z,8.40
2023-03-29T01:12:04.389Z,8.80
2023-03-29T01:22:38.987Z,8.60
2023-03-29T01:32:55.787Z,8.80
2023-03-29T01:43:05.582Z,9.10
2023-03-29T01:53:18.347Z,8.80
2023-03-29T02:03:28.319Z,8.60
2023-03-29T02:13:33.905Z,9.10
2023-03-29T02:23:45.598Z,8.90
2023-03-29T02:34:31.219Z,8.70
2023-03-29T02:44:40.238Z,8.90
2023-03-29T02:54:50.487Z,9.30
2023-03-29T03:04:54.446Z,10.10
2023-03-29T03:15:00.118Z,8.90
2023-03-29T03:25:04.120Z,8.90
2023-03-29T03:35:09.561Z,9.00
2023-03-29T03:45:14.581Z,8.80
2023-03-29T03:55:24.150Z,9.40
2023-03-29T04:05:50.553Z,9.00
2023-03-29T04:15:58.798Z,10.30
2023-03-29T04:26:04.624Z,24.40
2023-03-29T04:36:32.243Z,35.70
2023-03-29T04:46:39.180Z,26.10
2023-03-29T04:56:49.736Z,12.30
2023-03-29T05:29:56.242Z,8.90
2023-03-29T07:10:23.956Z,6.50
2023-03-29T07:20:50.174Z,6.30
2023-03-29T07:30:56.108Z,5.80
2023-03-29T07:41:05.439Z,5.60
2023-03-29T07:51:16.751Z,4.90
2023-03-29T08:01:39.656Z,4.60
2023-03-29T08:11:43.238Z,4.60
2023-03-29T08:22:02.182Z,4.20
2023-03-29T08:32:19.537Z,4.20
2023-03-29T08:42:57.977Z,4.00
2023-03-29T08:53:22.821Z,3.10
2023-03-29T09:04:24.693Z,3.20
2023-03-29T09:15:05.060Z,2.70
2023-03-29T09:25:26.092Z,2.40
2023-03-29T09:35:33.977Z,2.10
2023-03-29T09:58:26.845Z,1.30
2023-03-29T10:08:36.075Z,1.50
2023-03-29T10:18:50.629Z,1.90
2023-03-29T10:29:40.586Z,1.80
2023-03-29T10:39:44.738Z,1.60
2023-03-29T10:49:56.419Z,1.30
2023-03-29T11:00:17.813Z,1.50
2023-03-29T11:10:47.034Z,1.50
2023-03-29T11:20:56.666Z,1.90
2023-03-29T11:31:32.209Z,2.50
2023-03-29T11:54:30.153Z,3.30
2023-03-29T12:04:42.810Z,4.00
2023-03-29T12:14:59.005Z,3.80
2023-03-29T12:25:05.560Z,2.10
2023-03-29T12:35:42.351Z,2.00
2023-03-29T12:46:23.242Z,2.40
2023-03-29T12:56:42.926Z,2.20
2023-03-29T13:07:04.183Z,2.40
2023-03-29T13:17:18.319Z,2.40
2023-03-29T13:27:43.405Z,3.70
2023-03-29T13:38:15.468Z,2.30
2023-03-29T13:48:28.675Z,2.40
2023-03-29T13:58:36.666Z,2.40
2023-03-29T14:08:44.389Z,3.00
2023-03-29T14:18:53.301Z,3.00
2023-03-29T14:28:59.160Z,3.00
2023-03-29T14:39:04.378Z,3.60
2023-03-29T14:49:10.549Z,2.90
2023-03-29T14:59:32.610Z,3.80
2023-03-29T15:09:36.552Z,3.70
2023-03-29T15:19:40.210Z,4.80
2023-03-29T15:29:48.074Z,3.40
2023-03-29T15:39:52.474Z,4.40
2023-03-29T15:50:01.445Z,4.00
2023-03-29T16:00:08.205Z,3.70
2023-03-29T16:10:16.761Z,4.10
2023-03-29T16:20:20.776Z,6.00
2023-03-29T16:30:25.156Z,6.40
2023-03-29T16:40:28.808Z,7.00
2023-03-29T16:50:34.541Z,7.60
2023-03-29T17:00:38.265Z,7.50
2023-03-29T17:10:42.539Z,20.20
2023-03-29T17:20:50.566Z,29.40
2023-03-29T17:30:54.283Z,46.90
2023-03-29T17:40:57.875Z,21.10
2023-03-29T17:51:03.342Z,27.30
2023-03-29T18:01:12.989Z,45.70
2023-03-29T18:11:24.924Z,58.80
2023-03-29T18:21:28.716Z,24.60
2023-03-29T18:31:32.496Z,22.10
2023-03-29T18:41:40.552Z,19.20
2023-03-29T19:02:18.685Z,39.20
2023-03-29T19:12:23.901Z,30.80
2023-03-29T19:22:27.609Z,25.40
2023-03-29T19:32:33.851Z,23.80
2023-03-29T19:42:38.977Z,15.00
2023-03-29T19:52:43.284Z,17.30
2023-03-29T20:02:46.915Z,18.70
2023-03-29T20:12:53.962Z,15.00
2023-03-29T20:23:05.180Z,14.90
2023-03-29T20:33:09.305Z,11.80
2023-03-29T20:43:18.439Z,12.10
2023-03-29T20:53:22.808Z,10.70
2023-03-29T21:03:26.482Z,11.50
2023-03-29T21:13:35.008Z,11.70
2023-03-29T21:23:40.479Z,13.40
2023-03-29T21:33:44.139Z,18.00
2023-03-29T21:43:49.779Z,28.70
2023-03-29T21:53:53.450Z,20.40
2023-03-29T22:03:57.274Z,18.50
2023-03-29T22:14:01.065Z,16.70
2023-03-29T22:24:07.765Z,14.00
2023-03-29T22:34:12.736Z,12.50
2023-03-29T22:44:16.598Z,12.30
2023-03-29T22:54:20.769Z,13.50
2023-03-29T23:04:24.436Z,13.70
2023-03-29T23:14:28.075Z,12.30
2023-03-29T23:24:33.688Z,12.90
2023-03-29T23:34:38.567Z,11.70
2023-03-29T23:44:42.519Z,12.60
2023-03-29T23:54:46.729Z,12.70
